createdAt,value
2022-10-23T00:01:24.540Z,14.97
2022-10-23T00:03:53.376Z,15.00
2022-10-23T00:06:20.555Z,14.97
2022-10-23T00:08:48.044Z,14.95
2022-10-23T00:11:18.367Z,14.92
2022-10-23T00:13:45.469Z,14.89
2022-10-23T00:16:12.106Z,14.92
2022-10-23T00:18:39.710Z,14.92
2022-10-23T00:21:08.426Z,14.88
2022-10-23T00:23:35.047Z,14.82
2022-10-23T00:26:02.333Z,14.87
2022-10-23T00:28:28.765Z,14.83
2022-10-23T00:30:55.255Z,14.78
2022-10-23T00:33:21.731Z,14.76
2022-10-23T00:35:48.439Z,14.80
2022-10-23T00:38:14.865Z,14.77
2022-10-23T00:40:42.344Z,14.82
2022-10-23T00:43:18.498Z,14.86
2022-10-23T00:45:45.363Z,14.85
2022-10-23T00:48:12.152Z,14.83
2022-10-23T00:50:38.707Z,14.86
2022-10-23T00:53:06.801Z,14.81
2022-10-23T00:55:33.915Z,14.82
2022-10-23T00:58:01.674Z,14.79
2022-10-23T01:00:32.089Z,14.72
2022-10-23T01:02:58.639Z,14.75
2022-10-23T01:05:32.915Z,14.66
2022-10-23T01:08:09.328Z,14.65
2022-10-23T01:10:52.125Z,14.71
2022-10-23T01:13:26.870Z,14.65
2022-10-23T01:16:10.228Z,14.57
2022-10-23T01:18:42.799Z,14.60
2022-10-23T01:21:55.305Z,14.50
2022-10-23T01:24:29.350Z,14.45
2022-10-23T01:27:13.802Z,14.45
2022-10-23T01:29:49.047Z,14.41
2022-10-23T01:32:30.319Z,14.44
2022-10-23T01:35:07.431Z,14.43
2022-10-23T01:37:42.198Z,14.38
2022-10-23T01:40:15.105Z,14.36
2022-10-23T01:42:46.939Z,14.32
2022-10-23T01:45:23.913Z,14.35
2022-10-23T01:47:51.178Z,14.36
2022-10-23T01:50:19.669Z,14.31
2022-10-23T01:52:46.220Z,14.31
2022-10-23T01:55:14.437Z,14.29
2022-10-23T01:57:44.596Z,14.28
2022-10-23T02:00:15.032Z,14.31
2022-10-23T02:02:44.978Z,14.25
2022-10-23T02:05:22.323Z,14.31
2022-10-23T02:07:49.393Z,14.31
2022-10-23T02:10:16.090Z,14.35
2022-10-23T02:13:18.979Z,14.24
2022-10-23T02:15:55.054Z,14.28
2022-10-23T02:18:59.996Z,14.36
2022-10-23T02:21:38.972Z,14.34
2022-10-23T02:24:11.510Z,14.34
2022-10-23T02:26:42.411Z,14.28
2022-10-23T02:29:39.437Z,14.20
2022-10-23T02:32:09.208Z,14.28
2022-10-23T02:34:36.080Z,14.29
2022-10-23T02:37:02.922Z,14.29
2022-10-23T02:39:29.971Z,14.28
2022-10-23T02:42:01.075Z,14.30
2022-10-23T02:44:45.337Z,14.22
2022-10-23T02:47:11.681Z,14.18
2022-10-23T02:50:05.444Z,14.22
2022-10-23T02:53:04.019Z,14.22
2022-10-23T02:56:03.989Z,14.24
2022-10-23T02:58:42.487Z,14.20
2022-10-23T03:01:17.141Z,14.26
2022-10-23T03:03:55.196Z,14.21
2022-10-23T03:06:23.152Z,14.24
2022-10-23T03:09:03.862Z,14.22
2022-10-23T03:11:30.403Z,14.19
2022-10-23T03:13:56.849Z,14.20
2022-10-23T03:16:23.261Z,14.11
2022-10-23T03:18:49.714Z,14.05
2022-10-23T03:21:16.375Z,14.18
2022-10-23T03:23:42.855Z,14.14
2022-10-23T03:26:09.517Z,14.18
2022-10-23T03:28:35.992Z,14.05
2022-10-23T03:31:03.622Z,14.06
2022-10-23T03:33:31.166Z,14.10
2022-10-23T03:35:57.972Z,14.13
2022-10-23T03:38:24.427Z,14.03
2022-10-23T03:40:51.010Z,14.08
2022-10-23T03:43:17.435Z,14.09
2022-10-23T03:45:43.868Z,14.06
2022-10-23T03:48:10.738Z,14.03
2022-10-23T03:50:37.205Z,14.02
2022-10-23T03:53:03.708Z,14.02
2022-10-23T03:55:31.104Z,14.13
2022-10-23T03:57:57.515Z,14.10
2022-10-23T04:00:24.024Z,14.10
2022-10-23T04:02:50.655Z,14.10
2022-10-23T04:05:17.165Z,14.12
2022-10-23T04:07:43.607Z,14.08
2022-10-23T04:10:10.028Z,14.01
2022-10-23T04:12:36.425Z,14.09
2022-10-23T04:15:02.852Z,14.02
2022-10-23T04:17:29.292Z,14.07
2022-10-23T04:19:55.979Z,13.98
2022-10-23T04:22:24.781Z,13.98
2022-10-23T04:24:53.990Z,14.00
2022-10-23T04:27:20.473Z,13.97
2022-10-23T04:29:46.917Z,13.89
2022-10-23T04:32:13.349Z,13.90
2022-10-23T04:34:39.774Z,13.87
2022-10-23T04:37:06.189Z,13.89
2022-10-23T04:39:32.658Z,13.87
2022-10-23T04:41:59.091Z,13.81
2022-10-23T04:44:25.473Z,13.82
2022-10-23T04:46:51.868Z,13.74
2022-10-23T04:49:18.288Z,13.77
2022-10-23T04:51:44.749Z,13.77
2022-10-23T04:54:11.889Z,13.73
2022-10-23T04:56:38.404Z,13.67
2022-10-23T05:01:31.901Z,13.59
2022-10-23T05:03:58.490Z,13.59
2022-10-23T05:06:24.924Z,13.59
2022-10-23T05:08:51.343Z,13.62
2022-10-23T05:11:17.787Z,13.58
2022-10-23T05:13:44.336Z,13.61
2022-10-23T05:16:21.124Z,13.55
2022-10-23T05:18:48.170Z,13.50
2022-10-23T05:21:23.463Z,13.52
2022-10-23T05:23:50.767Z,13.45
2022-10-23T05:26:17.184Z,13.44
2022-10-23T05:28:43.690Z,13.32
2022-10-23T05:31:10.728Z,13.33
2022-10-23T05:33:37.548Z,13.35
2022-10-23T05:36:04.511Z,13.30
2022-10-23T05:38:33.551Z,13.28
2022-10-23T05:41:00.029Z,13.32
2022-10-23T05:43:27.331Z,13.33
2022-10-23T05:45:54.230Z,13.34
2022-10-23T05:48:34.381Z,13.34
2022-10-23T05:51:09.746Z,13.32
2022-10-23T05:53:38.868Z,13.32
2022-10-23T05:56:09.200Z,13.29
2022-10-23T05:58:35.703Z,13.21
2022-10-23T06:01:09.948Z,13.35
2022-10-23T06:03:37.797Z,13.41
2022-10-23T06:06:05.658Z,13.42
2022-10-23T06:08:33.264Z,13.46
2022-10-23T06:11:06.230Z,13.52
2022-10-23T06:13:32.651Z,13.51
2022-10-23T06:15:59.218Z,13.47
2022-10-23T06:18:25.660Z,13.54
2022-10-23T06:20:52.067Z,13.54
2022-10-23T06:23:18.464Z,13.57
2022-10-23T06:25:51.276Z,13.60
2022-10-23T06:28:20.510Z,13.64
2022-10-23T06:30:47.355Z,13.64
2022-10-23T06:33:13.792Z,13.68
2022-10-23T06:35:40.215Z,13.72
2022-10-23T06:38:06.781Z,13.79
2022-10-23T06:40:33.169Z,13.80
2022-10-23T06:42:59.616Z,13.99
2022-10-23T06:45:26.030Z,14.02
2022-10-23T06:47:52.733Z,14.09
2022-10-23T06:50:19.208Z,14.10
2022-10-23T06:52:47.348Z,14.12
2022-10-23T06:55:14.944Z,14.23
2022-10-23T06:57:41.923Z,14.25
2022-10-23T07:00:09.475Z,14.27
2022-10-23T07:02:36.298Z,14.24
2022-10-23T07:05:02.715Z,14.28
2022-10-23T07:07:32.347Z,14.33
2022-10-23T07:09:58.866Z,14.38
2022-10-23T07:12:25.329Z,14.50
2022-10-23T07:14:51.761Z,14.61
2022-10-23T07:17:18.253Z,14.73
2022-10-23T07:23:22.603Z,15.02
2022-10-23T07:25:49.076Z,15.05
2022-10-23T07:28:15.536Z,15.05
2022-10-23T07:30:42.940Z,15.03
2022-10-23T07:33:12.372Z,15.03
2022-10-23T07:35:40.841Z,15.14
2022-10-23T07:38:07.262Z,15.25
2022-10-23T07:40:33.719Z,15.16
2022-10-23T07:43:00.184Z,15.27
2022-10-23T07:45:26.645Z,15.39
2022-10-23T07:47:53.147Z,15.62
2022-10-23T07:50:19.717Z,15.72
2022-10-23T07:52:46.536Z,15.96
2022-10-23T07:55:13.854Z,16.61
2022-10-23T07:57:40.374Z,17.19
2022-10-23T08:00:07.422Z,17.81
2022-10-23T08:02:33.914Z,17.84
2022-10-23T08:05:00.421Z,18.44
2022-10-23T08:07:26.961Z,18.97
2022-10-23T08:09:53.517Z,18.90
2022-10-23T08:12:19.975Z,19.66
2022-10-23T08:14:46.415Z,19.73
2022-10-23T08:17:12.868Z,20.06
2022-10-23T08:19:39.396Z,19.64
2022-10-23T08:22:06.079Z,19.63
2022-10-23T08:24:32.523Z,19.18
2022-10-23T08:26:59.412Z,19.35
2022-10-23T08:29:25.830Z,18.85
2022-10-23T08:31:56.358Z,18.88
2022-10-23T08:34:23.666Z,18.71
2022-10-23T08:36:50.367Z,18.76
2022-10-23T08:39:16.808Z,18.53
2022-10-23T08:41:49.189Z,18.47
2022-10-23T08:44:30.914Z,18.03
2022-10-23T08:47:17.126Z,17.93
2022-10-23T08:49:50.538Z,18.15
2022-10-23T08:52:16.959Z,17.92
2022-10-23T08:54:57.081Z,17.89
2022-10-23T08:57:25.817Z,17.87
2022-10-23T09:00:00.301Z,17.68
2022-10-23T09:02:32.629Z,17.72
2022-10-23T09:04:59.530Z,17.86
2022-10-23T09:08:04.658Z,17.83
2022-10-23T09:10:51.623Z,17.78
2022-10-23T09:13:28.343Z,17.91
2022-10-23T09:16:18.643Z,17.89
2022-10-23T09:18:47.389Z,18.08
2022-10-23T09:21:14.114Z,18.10
2022-10-23T09:23:40.511Z,18.35
2022-10-23T09:26:14.451Z,18.79
2022-10-23T09:28:50.586Z,18.62
2022-10-23T09:31:18.825Z,18.38
2022-10-23T09:34:00.837Z,18.48
2022-10-23T09:36:29.276Z,18.48
2022-10-23T09:38:58.880Z,18.44
2022-10-23T09:41:36.252Z,18.53
2022-10-23T09:44:18.968Z,18.95
2022-10-23T09:46:54.235Z,19.26
2022-10-23T09:49:26.465Z,19.09
2022-10-23T09:52:03.697Z,18.89
2022-10-23T09:54:38.142Z,18.81
2022-10-23T09:57:31.171Z,18.64
2022-10-23T10:00:03.908Z,18.71
2022-10-23T10:02:36.210Z,18.54
2022-10-23T10:05:24.357Z,18.86
2022-10-23T10:08:22.577Z,19.32
2022-10-23T10:11:04.761Z,19.25
2022-10-23T10:13:34.012Z,19.43
2022-10-23T10:16:21.614Z,19.83
2022-10-23T10:19:14.155Z,20.92
2022-10-23T10:21:57.956Z,20.94
2022-10-23T10:24:29.869Z,20.93
2022-10-23T10:27:15.833Z,21.59
2022-10-23T10:29:56.724Z,21.69
2022-10-23T10:32:41.753Z,22.15
2022-10-23T10:35:23.770Z,22.20
2022-10-23T10:38:24.114Z,22.67
2022-10-23T10:41:09.035Z,22.66
2022-10-23T10:43:47.998Z,22.89
2022-10-23T10:46:32.547Z,23.66
2022-10-23T10:49:13.037Z,24.29
2022-10-23T10:52:09.786Z,22.88
2022-10-23T10:55:11.711Z,21.84
2022-10-23T10:57:45.954Z,21.55
2022-10-23T11:00:21.216Z,21.31
2022-10-23T11:03:00.522Z,20.59
2022-10-23T11:05:38.118Z,20.69
2022-10-23T11:08:13.740Z,20.48
2022-10-23T11:10:46.224Z,21.48
2022-10-23T11:13:28.918Z,21.64
2022-10-23T11:16:01.329Z,22.04
2022-10-23T11:18:30.886Z,22.55
2022-10-23T11:21:09.774Z,21.53
2022-10-23T11:24:13.387Z,22.43
2022-10-23T11:26:51.935Z,22.86
2022-10-23T11:29:27.508Z,23.24
2022-10-23T11:32:03.025Z,22.98
2022-10-23T11:35:02.565Z,22.61
2022-10-23T11:37:29.168Z,23.10
2022-10-23T11:40:07.575Z,22.71
2022-10-23T11:42:47.328Z,22.00
2022-10-23T11:45:30.671Z,21.36
2022-10-23T11:48:01.551Z,21.22
2022-10-23T11:50:31.109Z,21.04
2022-10-23T11:53:15.804Z,20.67
2022-10-23T11:56:19.872Z,20.48
2022-10-23T11:58:50.560Z,20.42
2022-10-23T12:01:39.518Z,20.19
2022-10-23T12:04:14.916Z,19.85
2022-10-23T12:06:47.598Z,19.86
2022-10-23T12:09:46.256Z,19.59
2022-10-23T12:12:26.203Z,19.41
2022-10-23T12:14:52.705Z,19.76
2022-10-23T12:17:22.102Z,20.05
2022-10-23T12:20:01.999Z,19.87
2022-10-23T12:22:54.350Z,19.80
2022-10-23T12:25:43.511Z,19.95
2022-10-23T12:28:24.720Z,20.22
2022-10-23T12:31:05.164Z,20.17
2022-10-23T12:34:14.501Z,20.27
2022-10-23T12:36:51.290Z,20.17
2022-10-23T12:39:31.676Z,20.23
2022-10-23T12:42:00.352Z,20.22
2022-10-23T12:44:27.823Z,20.16
2022-10-23T12:47:00.763Z,20.80
2022-10-23T12:49:31.980Z,20.70
2022-10-23T12:52:14.018Z,20.68
2022-10-23T12:54:41.409Z,20.40
2022-10-23T12:57:20.978Z,20.03
2022-10-23T12:59:48.085Z,19.92
2022-10-23T13:02:23.827Z,19.80
2022-10-23T13:04:53.474Z,20.03
2022-10-23T13:07:24.575Z,20.20
2022-10-23T13:09:51.823Z,19.88
2022-10-23T13:12:30.750Z,20.40
2022-10-23T13:15:00.434Z,20.27
2022-10-23T13:17:42.247Z,20.54
2022-10-23T13:20:30.775Z,20.75
2022-10-23T13:23:00.639Z,20.78
2022-10-23T13:25:27.679Z,21.01
2022-10-23T13:28:19.022Z,21.24
2022-10-23T13:30:48.763Z,21.50
2022-10-23T13:33:21.384Z,21.25
2022-10-23T13:35:58.934Z,21.34
2022-10-23T13:38:33.340Z,21.17
2022-10-23T13:41:01.199Z,21.30
2022-10-23T13:43:30.647Z,21.14
2022-10-23T13:46:00.859Z,20.85
2022-10-23T13:48:28.213Z,20.75
2022-10-23T13:51:06.338Z,20.73
2022-10-23T13:53:33.113Z,20.67
2022-10-23T13:55:59.709Z,20.88
2022-10-23T13:58:26.114Z,20.94
2022-10-23T14:00:52.700Z,20.59
2022-10-23T14:03:20.320Z,20.21
2022-10-23T14:05:46.705Z,20.18
2022-10-23T14:08:13.118Z,20.05
2022-10-23T14:10:39.538Z,19.99
2022-10-23T14:13:06.191Z,19.94
2022-10-23T14:15:32.594Z,20.01
2022-10-23T14:18:00.180Z,20.02
2022-10-23T14:20:28.949Z,19.92
2022-10-23T14:22:55.436Z,19.95
2022-10-23T14:25:22.365Z,19.86
2022-10-23T14:27:49.197Z,19.80
2022-10-23T14:30:15.704Z,19.61
2022-10-23T14:32:42.532Z,19.54
2022-10-23T14:35:09.298Z,19.47
2022-10-23T14:37:35.777Z,19.41
2022-10-23T14:40:02.275Z,19.34
2022-10-23T14:42:34.084Z,19.28
2022-10-23T14:45:02.553Z,19.27
2022-10-23T14:47:28.998Z,19.18
2022-10-23T14:49:56.216Z,19.02
2022-10-23T14:52:23.605Z,19.05
2022-10-23T14:54:53.564Z,18.87
2022-10-23T14:57:22.098Z,18.81
2022-10-23T14:59:49.689Z,18.80
2022-10-23T15:02:16.842Z,18.76
2022-10-23T15:04:43.539Z,18.66
2022-10-23T15:07:09.996Z,18.53
2022-10-23T15:09:36.672Z,18.59
2022-10-23T15:12:04.507Z,18.55
2022-10-23T15:14:31.045Z,18.42
2022-10-23T15:16:57.514Z,18.36
2022-10-23T15:19:24.048Z,18.41
2022-10-23T15:21:50.542Z,18.48
2022-10-23T15:24:17.515Z,18.42
2022-10-23T15:26:44.502Z,18.45
2022-10-23T15:29:12.107Z,18.48
2022-10-23T15:31:38.576Z,18.50
2022-10-23T15:34:05.799Z,18.35
2022-10-23T15:36:33.079Z,18.39
2022-10-23T15:38:59.669Z,18.41
2022-10-23T15:41:31.386Z,18.38
2022-10-23T15:43:58.964Z,18.51
2022-10-23T15:46:25.530Z,18.47
2022-10-23T15:48:52.306Z,18.53
2022-10-23T15:51:18.763Z,18.62
2022-10-23T15:53:45.169Z,18.65
2022-10-23T15:56:11.560Z,18.57
2022-10-23T15:58:37.964Z,18.54
2022-10-23T16:01:06.524Z,18.60
2022-10-23T16:03:37.745Z,18.61
2022-10-23T16:06:09.432Z,18.60
2022-10-23T16:08:36.336Z,18.52
2022-10-23T16:11:03.528Z,18.55
2022-10-23T16:13:29.996Z,18.47
2022-10-23T16:15:56.431Z,18.40
2022-10-23T16:18:23.628Z,18.34
2022-10-23T16:20:55.466Z,18.38
2022-10-23T16:23:22.353Z,18.35
2022-10-23T16:25:48.794Z,18.40
2022-10-23T16:28:15.310Z,18.34
2022-10-23T16:30:42.984Z,18.33
2022-10-23T16:33:10.074Z,18.35
2022-10-23T16:35:37.093Z,18.24
2022-10-23T16:38:04.586Z,18.31
2022-10-23T16:40:31.219Z,18.39
2022-10-23T16:42:58.343Z,18.39
2022-10-23T16:45:24.918Z,18.39
2022-10-23T16:47:51.341Z,18.48
2022-10-23T16:50:17.885Z,18.45
2022-10-23T16:52:44.676Z,18.40
2022-10-23T16:55:11.352Z,18.39
2022-10-23T16:57:37.813Z,18.35
2022-10-23T17:00:05.209Z,18.39
2022-10-23T17:02:31.993Z,18.27
2022-10-23T17:04:58.568Z,18.33
2022-10-23T17:07:25.192Z,18.35
2022-10-23T17:09:51.659Z,18.22
2022-10-23T17:12:18.199Z,18.25
2022-10-23T17:14:44.629Z,18.24
2022-10-23T17:17:11.029Z,18.14
2022-10-23T17:19:45.460Z,18.03
2022-10-23T17:22:13.624Z,18.07
2022-10-23T17:24:40.996Z,18.10
2022-10-23T17:27:07.659Z,18.02
2022-10-23T17:29:34.196Z,18.00
2022-10-23T17:32:01.012Z,17.93
2022-10-23T17:34:27.526Z,17.80
2022-10-23T17:36:55.012Z,17.91
2022-10-23T17:39:26.742Z,17.93
2022-10-23T17:41:53.903Z,17.83
2022-10-23T17:44:21.215Z,17.79
2022-10-23T17:46:53.823Z,18.01
2022-10-23T17:49:21.703Z,18.99
2022-10-23T17:51:54.976Z,20.09
2022-10-23T17:54:22.468Z,21.29
2022-10-23T17:56:49.019Z,21.50
2022-10-23T17:59:17.497Z,21.83
2022-10-23T18:01:46.345Z,22.00
2022-10-23T18:04:12.976Z,22.09
2022-10-23T18:06:48.831Z,22.19
2022-10-23T18:09:15.657Z,22.18
2022-10-23T18:11:47.036Z,22.27
2022-10-23T18:14:15.683Z,22.36
2022-10-23T18:16:42.328Z,22.42
2022-10-23T18:19:09.251Z,22.44
2022-10-23T18:21:36.423Z,22.34
2022-10-23T18:24:03.216Z,22.37
2022-10-23T18:26:32.213Z,22.29
2022-10-23T18:28:59.608Z,22.33
2022-10-23T18:31:29.616Z,22.34
2022-10-23T18:34:01.663Z,22.60
2022-10-23T18:36:30.585Z,22.65
2022-10-23T18:38:57.163Z,22.53
2022-10-23T18:41:23.819Z,22.47
2022-10-23T18:43:54.545Z,22.42
2022-10-23T18:46:21.967Z,22.49
2022-10-23T18:48:50.770Z,22.45
2022-10-23T18:51:23.232Z,22.45
2022-10-23T18:53:50.389Z,22.41
2022-10-23T18:56:22.753Z,22.36
2022-10-23T18:58:53.310Z,22.25
2022-10-23T19:01:20.551Z,22.20
2022-10-23T19:03:47.844Z,22.20
2022-10-23T19:06:14.999Z,22.21
2022-10-23T19:08:43.905Z,22.07
2022-10-23T19:11:12.138Z,21.87
2022-10-23T19:13:39.590Z,21.62
2022-10-23T19:16:29.287Z,21.58
2022-10-23T19:19:00.025Z,21.32
2022-10-23T19:21:40.286Z,21.28
2022-10-23T19:24:33.597Z,21.26
2022-10-23T19:27:01.890Z,21.35
2022-10-23T19:29:29.514Z,21.31
2022-10-23T19:32:03.555Z,21.27
2022-10-23T19:34:29.988Z,21.29
2022-10-23T19:36:56.384Z,21.26
2022-10-23T19:39:38.717Z,21.26
2022-10-23T19:42:08.720Z,21.25
2022-10-23T19:44:38.236Z,21.16
2022-10-23T19:47:04.723Z,21.26
2022-10-23T19:49:31.179Z,21.41
2022-10-23T19:51:57.671Z,21.41
2022-10-23T19:54:24.749Z,21.42
2022-10-23T19:56:51.233Z,21.36
2022-10-23T19:59:18.332Z,21.30
2022-10-23T20:01:47.845Z,21.25
2022-10-23T20:04:15.272Z,21.24
2022-10-23T20:06:41.664Z,21.19
2022-10-23T20:09:09.786Z,21.11
2022-10-23T20:11:38.587Z,21.07
2022-10-23T20:14:06.072Z,20.97
2022-10-23T20:16:35.703Z,20.94
2022-10-23T20:19:06.975Z,20.86
2022-10-23T20:21:38.419Z,20.90
2022-10-23T20:24:05.245Z,20.91
2022-10-23T20:26:31.900Z,20.88
2022-10-23T20:28:58.353Z,20.87
2022-10-23T20:31:27.020Z,20.83
2022-10-23T20:33:54.319Z,20.84
2022-10-23T20:36:24.647Z,20.87
2022-10-23T20:38:51.729Z,20.88
2022-10-23T20:41:18.257Z,20.91
2022-10-23T20:43:44.695Z,20.87
2022-10-23T20:46:11.168Z,20.81
2022-10-23T20:48:39.779Z,20.89
2022-10-23T20:51:08.611Z,20.94
2022-10-23T20:53:36.160Z,20.97
2022-10-23T20:56:17.388Z,20.94
2022-10-23T20:58:44.280Z,21.03
2022-10-23T21:01:16.642Z,21.03
2022-10-23T21:03:43.940Z,21.02
2022-10-23T21:06:13.887Z,21.06
2022-10-23T21:08:40.981Z,20.98
2022-10-23T21:11:11.080Z,20.93
2022-10-23T21:13:37.525Z,20.90
2022-10-23T21:16:17.645Z,20.89
2022-10-23T21:18:46.373Z,20.83
2022-10-23T21:21:16.941Z,20.80
2022-10-23T21:23:43.401Z,20.81
2022-10-23T21:26:09.821Z,20.85
2022-10-23T21:28:36.337Z,20.88
2022-10-23T21:31:08.904Z,20.85
2022-10-23T21:33:36.789Z,20.90
2022-10-23T21:36:18.987Z,20.91
2022-10-23T21:38:47.133Z,20.90
2022-10-23T21:41:19.318Z,20.96
2022-10-23T21:43:46.125Z,21.06
2022-10-23T21:46:17.998Z,21.22
2022-10-23T21:48:44.935Z,21.24
2022-10-23T21:51:35.317Z,21.20
2022-10-23T21:54:02.043Z,21.13
2022-10-23T21:56:32.086Z,21.04
2022-10-23T21:59:00.858Z,20.94
2022-10-23T22:01:28.346Z,20.93
2022-10-23T22:03:55.728Z,20.81
2022-10-23T22:06:26.148Z,20.70
2022-10-23T22:08:54.047Z,20.59
2022-10-23T22:11:20.857Z,20.39
2022-10-23T22:13:47.395Z,20.22
2022-10-23T22:16:17.603Z,20.18
2022-10-23T22:18:44.662Z,20.25
2022-10-23T22:21:15.563Z,20.20
2022-10-23T22:23:42.820Z,20.12
2022-10-23T22:26:19.669Z,20.03
2022-10-23T22:28:46.069Z,20.04
2022-10-23T22:31:17.829Z,19.99
2022-10-23T22:33:44.775Z,20.01
2022-10-23T22:36:11.352Z,19.86
2022-10-23T22:38:38.800Z,19.72
2022-10-23T22:41:05.637Z,19.68
2022-10-23T22:43:32.036Z,19.75
2022-10-23T22:46:08.338Z,19.78
2022-10-23T22:48:35.795Z,19.71
2022-10-23T22:51:02.787Z,19.76
2022-10-23T22:53:29.819Z,19.79
2022-10-23T22:55:56.889Z,19.76
2022-10-23T22:58:24.612Z,19.76
2022-10-23T23:00:52.162Z,19.80
2022-10-23T23:03:18.614Z,19.77
2022-10-23T23:05:47.227Z,19.75
2022-10-23T23:08:14.819Z,19.71
2022-10-23T23:10:41.533Z,19.75
2022-10-23T23:13:08.211Z,19.75
2022-10-23T23:15:40.421Z,19.72
2022-10-23T23:18:06.894Z,19.78
2022-10-23T23:20:33.681Z,19.82
2022-10-23T23:23:00.089Z,19.81
2022-10-23T23:25:26.566Z,19.82
2022-10-23T23:27:52.984Z,19.77
2022-10-23T23:30:19.449Z,19.74
2022-10-23T23:32:48.102Z,19.76
2022-10-23T23:35:14.663Z,19.90
2022-10-23T23:37:41.070Z,20.13
2022-10-23T23:40:08.125Z,20.26
2022-10-23T23:42:34.588Z,20.51
2022-10-23T23:45:13.803Z,20.58
2022-10-23T23:47:41.467Z,20.61
2022-10-23T23:50:10.241Z,20.57
2022-10-23T23:52:36.660Z,20.63
2022-10-23T23:55:03.202Z,20.56
2022-10-23T23:57:29.650Z,20.51
2022-10-23T23:59:56.223Z,20.55
